sensor_id;sensor_type;location;lat;lon;timestamp;P1;durP1;ratioP1;P2;durP2;ratioP2
69491;SDS011;56692;52.016;4.356;2023-03-31T00:00:55;11.75;;;1.25;;
69491;SDS011;56692;52.016;4.356;2023-03-31T00:03:22;12.23;;;1.70;;
69491;SDS011;56692;52.016;4.356;2023-03-31T00:05:49;10.53;;;1.60;;
69491;SDS011;56692;52.016;4.356;2023-03-31T00:08:20;6.55;;;1.63;;
69491;SDS011;56692;52.016;4.356;2023-03-31T00:10:46;9.05;;;1.50;;
69491;SDS011;56692;52.016;4.356;2023-03-31T00:13:12;9.52;;;1.05;;
69491;SDS011;56692;52.016;4.356;2023-03-31T00:15:38;9.80;;;1.53;;
69491;SDS011;56692;52.016;4.356;2023-03-31T00:18:04;9.93;;;1.52;;
69491;SDS011;56692;52.016;4.356;2023-03-31T00:20:30;10.57;;;1.40;;
69491;SDS011;56692;52.016;4.356;2023-03-31T00:22:57;9.95;;;2.28;;
69491;SDS011;56692;52.016;4.356;2023-03-31T00:25:25;10.33;;;1.47;;
69491;SDS011;56692;52.016;4.356;2023-03-31T00:27:51;11.57;;;1.90;;
69491;SDS011;56692;52.016;4.356;2023-03-31T00:30:18;10.90;;;1.40;;
69491;SDS011;56692;52.016;4.356;2023-03-31T00:32:43;10.48;;;2.03;;
69491;SDS011;56692;52.016;4.356;2023-03-31T00:35:09;9.47;;;1.83;;
69491;SDS011;56692;52.016;4.356;2023-03-31T00:37:35;8.20;;;1.45;;
69491;SDS011;56692;52.016;4.356;2023-03-31T00:40:01;8.18;;;1.02;;
69491;SDS011;56692;52.016;4.356;2023-03-31T00:42:40;8.45;;;1.10;;
69491;SDS011;56692;52.016;4.356;2023-03-31T00:47:41;6.57;;;0.90;;
69491;SDS011;56692;52.016;4.356;2023-03-31T00:50:14;10.32;;;1.15;;
69491;SDS011;56692;52.016;4.356;2023-03-31T00:52:45;9.25;;;1.27;;
69491;SDS011;56692;52.016;4.356;2023-03-31T00:55:15;8.27;;;0.93;;
69491;SDS011;56692;52.016;4.356;2023-03-31T00:57:45;6.70;;;0.87;;
69491;SDS011;56692;52.016;4.356;2023-03-31T01:00:12;6.00;;;1.05;;
69491;SDS011;56692;52.016;4.356;2023-03-31T01:02:43;9.45;;;1.30;;
69491;SDS011;56692;52.016;4.356;2023-03-31T01:05:35;7.50;;;0.88;;
69491;SDS011;56692;52.016;4.356;2023-03-31T01:08:09;5.75;;;0.93;;
69491;SDS011;56692;52.016;4.356;2023-03-31T01:10:38;7.00;;;0.70;;
69491;SDS011;56692;52.016;4.356;2023-03-31T01:13:08;8.38;;;1.13;;
69491;SDS011;56692;52.016;4.356;2023-03-31T01:15:36;6.88;;;1.27;;
69491;SDS011;56692;52.016;4.356;2023-03-31T01:18:03;7.00;;;1.60;;
69491;SDS011;56692;52.016;4.356;2023-03-31T01:20:40;6.78;;;1.00;;
69491;SDS011;56692;52.016;4.356;2023-03-31T01:31:54;8.70;;;1.42;;
69491;SDS011;56692;52.016;4.356;2023-03-31T01:34:49;6.72;;;1.38;;
69491;SDS011;56692;52.016;4.356;2023-03-31T01:48:26;7.50;;;1.27;;
69491;SDS011;56692;52.016;4.356;2023-03-31T01:53:48;6.03;;;0.82;;
69491;SDS011;56692;52.016;4.356;2023-03-31T01:56:21;6.95;;;0.90;;
69491;SDS011;56692;52.016;4.356;2023-03-31T01:59:06;5.72;;;1.02;;
69491;SDS011;56692;52.016;4.356;2023-03-31T02:01:34;10.77;;;1.17;;
69491;SDS011;56692;52.016;4.356;2023-03-31T02:04:07;6.00;;;1.17;;
69491;SDS011;56692;52.016;4.356;2023-03-31T02:06:39;8.52;;;0.85;;
69491;SDS011;56692;52.016;4.356;2023-03-31T02:09:09;6.40;;;1.63;;
69491;SDS011;56692;52.016;4.356;2023-03-31T02:11:39;6.55;;;0.70;;
69491;SDS011;56692;52.016;4.356;2023-03-31T02:14:08;5.78;;;0.80;;
69491;SDS011;56692;52.016;4.356;2023-03-31T02:16:36;4.87;;;0.63;;
69491;SDS011;56692;52.016;4.356;2023-03-31T02:19:11;10.98;;;1.25;;
69491;SDS011;56692;52.016;4.356;2023-03-31T02:21:42;6.47;;;1.20;;
69491;SDS011;56692;52.016;4.356;2023-03-31T02:24:13;4.97;;;0.88;;
69491;SDS011;56692;52.016;4.356;2023-03-31T02:26:50;4.50;;;0.88;;
69491;SDS011;56692;52.016;4.356;2023-03-31T02:29:20;7.27;;;1.17;;
69491;SDS011;56692;52.016;4.356;2023-03-31T02:31:47;9.80;;;1.40;;
69491;SDS011;56692;52.016;4.356;2023-03-31T02:34:25;8.50;;;0.82;;
69491;SDS011;56692;52.016;4.356;2023-03-31T02:36:51;5.93;;;0.82;;
69491;SDS011;56692;52.016;4.356;2023-03-31T02:39:18;7.30;;;1.33;;
69491;SDS011;56692;52.016;4.356;2023-03-31T02:41:49;5.45;;;0.80;;
69491;SDS011;56692;52.016;4.356;2023-03-31T02:44:14;6.97;;;0.83;;
69491;SDS011;56692;52.016;4.356;2023-03-31T02:46:42;4.78;;;0.80;;
69491;SDS011;56692;52.016;4.356;2023-03-31T02:49:09;5.65;;;0.73;;
69491;SDS011;56692;52.016;4.356;2023-03-31T02:51:48;5.32;;;0.50;;
69491;SDS011;56692;52.016;4.356;2023-03-31T02:54:42;5.13;;;0.57;;
69491;SDS011;56692;52.016;4.356;2023-03-31T03:00:40;6.68;;;0.60;;
69491;SDS011;56692;52.016;4.356;2023-03-31T03:03:26;5.28;;;0.70;;
69491;SDS011;56692;52.016;4.356;2023-03-31T03:06:20;4.30;;;0.70;;
69491;SDS011;56692;52.016;4.356;2023-03-31T03:14:31;5.50;;;0.80;;
69491;SDS011;56692;52.016;4.356;2023-03-31T03:17:07;5.88;;;1.08;;
69491;SDS011;56692;52.016;4.356;2023-03-31T03:19:40;5.22;;;0.70;;
69491;SDS011;56692;52.016;4.356;2023-03-31T03:22:06;5.00;;;0.80;;
69491;SDS011;56692;52.016;4.356;2023-03-31T03:24:32;5.07;;;0.53;;
69491;SDS011;56692;52.016;4.356;2023-03-31T03:26:58;4.90;;;0.82;;
69491;SDS011;56692;52.016;4.356;2023-03-31T03:29:24;6.95;;;0.80;;
69491;SDS011;56692;52.016;4.356;2023-03-31T03:31:51;3.70;;;0.57;;
69491;SDS011;56692;52.016;4.356;2023-03-31T03:34:17;4.93;;;0.70;;
69491;SDS011;56692;52.016;4.356;2023-03-31T03:36:44;2.23;;;0.40;;
69491;SDS011;56692;52.016;4.356;2023-03-31T03:39:10;4.47;;;0.47;;
69491;SDS011;56692;52.016;4.356;2023-03-31T03:41:36;4.03;;;0.30;;
69491;SDS011;56692;52.016;4.356;2023-03-31T03:44:02;5.45;;;0.50;;
69491;SDS011;56692;52.016;4.356;2023-03-31T03:46:28;4.50;;;0.90;;
69491;SDS011;56692;52.016;4.356;2023-03-31T03:48:54;6.35;;;0.80;;
69491;SDS011;56692;52.016;4.356;2023-03-31T03:51:19;5.57;;;0.90;;
69491;SDS011;56692;52.016;4.356;2023-03-31T03:53:46;4.17;;;0.80;;
69491;SDS011;56692;52.016;4.356;2023-03-31T03:56:12;4.15;;;0.45;;
69491;SDS011;56692;52.016;4.356;2023-03-31T03:58:37;4.95;;;0.50;;
69491;SDS011;56692;52.016;4.356;2023-03-31T04:01:03;6.87;;;1.17;;
69491;SDS011;56692;52.016;4.356;2023-03-31T04:03:29;4.28;;;0.80;;
69491;SDS011;56692;52.016;4.356;2023-03-31T04:05:55;5.78;;;0.95;;
69491;SDS011;56692;52.016;4.356;2023-03-31T04:08:21;3.28;;;0.55;;
69491;SDS011;56692;52.016;4.356;2023-03-31T04:10:48;5.73;;;0.97;;
69491;SDS011;56692;52.016;4.356;2023-03-31T04:13:14;6.13;;;0.82;;
69491;SDS011;56692;52.016;4.356;2023-03-31T04:15:41;5.13;;;0.50;;
69491;SDS011;56692;52.016;4.356;2023-03-31T04:18:07;4.57;;;0.60;;
69491;SDS011;56692;52.016;4.356;2023-03-31T04:20:47;6.10;;;0.52;;
69491;SDS011;56692;52.016;4.356;2023-03-31T04:23:37;4.03;;;0.40;;
69491;SDS011;56692;52.016;4.356;2023-03-31T04:26:14;4.72;;;0.65;;
69491;SDS011;56692;52.016;4.356;2023-03-31T04:28:42;5.03;;;1.08;;
69491;SDS011;56692;52.016;4.356;2023-03-31T04:31:11;5.32;;;0.88;;
69491;SDS011;56692;52.016;4.356;2023-03-31T04:33:52;4.93;;;0.57;;
69491;SDS011;56692;52.016;4.356;2023-03-31T04:36:18;5.53;;;0.80;;
69491;SDS011;56692;52.016;4.356;2023-03-31T04:38:45;4.65;;;0.88;;
69491;SDS011;56692;52.016;4.356;2023-03-31T04:41:18;4.30;;;0.60;;
69491;SDS011;56692;52.016;4.356;2023-03-31T04:43:48;4.22;;;0.68;;
69491;SDS011;56692;52.016;4.356;2023-03-31T04:46:14;4.50;;;0.77;;
69491;SDS011;56692;52.016;4.356;2023-03-31T04:48:40;2.50;;;0.50;;
69491;SDS011;56692;52.016;4.356;2023-03-31T04:51:06;4.32;;;0.60;;
69491;SDS011;56692;52.016;4.356;2023-03-31T04:53:33;3.90;;;0.40;;
69491;SDS011;56692;52.016;4.356;2023-03-31T04:55:59;6.30;;;0.50;;
69491;SDS011;56692;52.016;4.356;2023-03-31T04:58:25;5.28;;;0.80;;
69491;SDS011;56692;52.016;4.356;2023-03-31T05:00:51;2.67;;;0.60;;
69491;SDS011;56692;52.016;4.356;2023-03-31T05:03:17;4.25;;;0.60;;
69491;SDS011;56692;52.016;4.356;2023-03-31T05:05:46;5.07;;;0.95;;
69491;SDS011;56692;52.016;4.356;2023-03-31T05:08:13;2.80;;;0.50;;
69491;SDS011;56692;52.016;4.356;2023-03-31T05:10:39;4.97;;;0.60;;
69491;SDS011;56692;52.016;4.356;2023-03-31T05:13:04;4.50;;;0.63;;
69491;SDS011;56692;52.016;4.356;2023-03-31T05:15:30;4.80;;;0.70;;
69491;SDS011;56692;52.016;4.356;2023-03-31T05:17:56;2.23;;;0.50;;
69491;SDS011;56692;52.016;4.356;2023-03-31T05:20:22;3.47;;;0.80;;
69491;SDS011;56692;52.016;4.356;2023-03-31T05:22:48;4.72;;;0.80;;
69491;SDS011;56692;52.016;4.356;2023-03-31T05:25:15;3.90;;;0.50;;
69491;SDS011;56692;52.016;4.356;2023-03-31T05:27:43;3.15;;;0.40;;
69491;SDS011;56692;52.016;4.356;2023-03-31T05:30:11;4.45;;;0.80;;
69491;SDS011;56692;52.016;4.356;2023-03-31T05:32:37;2.58;;;0.35;;
69491;SDS011;56692;52.016;4.356;2023-03-31T05:35:03;4.73;;;0.63;;
69491;SDS011;56692;52.016;4.356;2023-03-31T05:37:29;1.98;;;0.52;;
69491;SDS011;56692;52.016;4.356;2023-03-31T05:39:55;3.85;;;0.88;;
69491;SDS011;56692;52.016;4.356;2023-03-31T05:42:21;3.53;;;0.80;;
69491;SDS011;56692;52.016;4.356;2023-03-31T05:44:48;3.47;;;0.43;;
69491;SDS011;56692;52.016;4.356;2023-03-31T05:47:14;2.00;;;0.60;;
69491;SDS011;56692;52.016;4.356;2023-03-31T05:49:40;3.88;;;0.73;;
69491;SDS011;56692;52.016;4.356;2023-03-31T05:52:06;3.20;;;0.60;;
69491;SDS011;56692;52.016;4.356;2023-03-31T05:54:32;3.72;;;0.50;;
69491;SDS011;56692;52.016;4.356;2023-03-31T05:56:58;2.40;;;0.50;;
69491;SDS011;56692;52.016;4.356;2023-03-31T05:59:23;3.77;;;0.50;;
69491;SDS011;56692;52.016;4.356;2023-03-31T06:01:49;5.53;;;0.65;;
69491;SDS011;56692;52.016;4.356;2023-03-31T06:04:15;2.90;;;0.70;;
69491;SDS011;56692;52.016;4.356;2023-03-31T06:06:41;3.17;;;0.43;;
69491;SDS011;56692;52.016;4.356;2023-03-31T06:09:08;2.70;;;0.45;;
69491;SDS011;56692;52.016;4.356;2023-03-31T06:11:36;4.45;;;0.93;;
69491;SDS011;56692;52.016;4.356;2023-03-31T06:14:02;4.17;;;0.93;;
69491;SDS011;56692;52.016;4.356;2023-03-31T06:16:28;2.90;;;0.63;;
69491;SDS011;56692;52.016;4.356;2023-03-31T06:18:54;1.95;;;0.40;;
69491;SDS011;56692;52.016;4.356;2023-03-31T06:21:20;3.33;;;0.47;;
69491;SDS011;56692;52.016;4.356;2023-03-31T06:23:46;3.05;;;0.50;;
69491;SDS011;56692;52.016;4.356;2023-03-31T06:26:14;2.25;;;0.50;;
69491;SDS011;56692;52.016;4.356;2023-03-31T06:28:42;1.70;;;0.30;;
69491;SDS011;56692;52.016;4.356;2023-03-31T06:31:09;2.03;;;0.60;;
69491;SDS011;56692;52.016;4.356;2023-03-31T06:33:37;2.20;;;0.30;;
69491;SDS011;56692;52.016;4.356;2023-03-31T06:36:04;2.00;;;0.50;;
69491;SDS011;56692;52.016;4.356;2023-03-31T06:38:31;2.53;;;0.50;;
69491;SDS011;56692;52.016;4.356;2023-03-31T06:40:57;2.67;;;0.60;;
69491;SDS011;56692;52.016;4.356;2023-03-31T06:43:24;2.90;;;0.70;;
69491;SDS011;56692;52.016;4.356;2023-03-31T06:45:51;3.33;;;0.30;;
69491;SDS011;56692;52.016;4.356;2023-03-31T06:48:17;2.88;;;0.80;;
69491;SDS011;56692;52.016;4.356;2023-03-31T06:50:43;2.30;;;0.37;;
69491;SDS011;56692;52.016;4.356;2023-03-31T06:53:11;3.50;;;0.40;;
69491;SDS011;56692;52.016;4.356;2023-03-31T06:55:38;3.90;;;0.47;;
69491;SDS011;56692;52.016;4.356;2023-03-31T06:58:04;4.05;;;0.82;;
69491;SDS011;56692;52.016;4.356;2023-03-31T07:00:30;2.73;;;0.57;;
69491;SDS011;56692;52.016;4.356;2023-03-31T07:02:57;4.13;;;0.88;;
69491;SDS011;56692;52.016;4.356;2023-03-31T07:05:23;3.92;;;0.57;;
69491;SDS011;56692;52.016;4.356;2023-03-31T07:07:55;2.83;;;0.80;;
69491;SDS011;56692;52.016;4.356;2023-03-31T07:10:24;2.60;;;0.40;;
69491;SDS011;56692;52.016;4.356;2023-03-31T07:12:51;4.40;;;0.60;;
69491;SDS011;56692;52.016;4.356;2023-03-31T07:15:17;52.58;;;4.32;;
69491;SDS011;56692;52.016;4.356;2023-03-31T07:17:42;38.80;;;3.83;;
69491;SDS011;56692;52.016;4.356;2023-03-31T07:20:09;31.35;;;3.90;;
69491;SDS011;56692;52.016;4.356;2023-03-31T07:22:40;41.83;;;4.10;;
69491;SDS011;56692;52.016;4.356;2023-03-31T07:25:07;39.38;;;4.72;;
69491;SDS011;56692;52.016;4.356;2023-03-31T07:27:34;31.00;;;3.37;;
69491;SDS011;56692;52.016;4.356;2023-03-31T07:30:00;32.67;;;4.43;;
69491;SDS011;56692;52.016;4.356;2023-03-31T07:32:27;39.38;;;3.38;;
69491;SDS011;56692;52.016;4.356;2023-03-31T07:34:53;27.20;;;3.63;;
69491;SDS011;56692;52.016;4.356;2023-03-31T07:37:18;23.93;;;3.07;;
69491;SDS011;56692;52.016;4.356;2023-03-31T07:39:45;22.70;;;2.72;;
69491;SDS011;56692;52.016;4.356;2023-03-31T07:42:11;19.97;;;2.27;;
69491;SDS011;56692;52.016;4.356;2023-03-31T07:44:36;17.00;;;2.85;;
69491;SDS011;56692;52.016;4.356;2023-03-31T07:47:02;24.23;;;3.40;;
69491;SDS011;56692;52.016;4.356;2023-03-31T07:49:30;15.57;;;2.05;;
69491;SDS011;56692;52.016;4.356;2023-03-31T07:51:57;19.42;;;2.70;;
69491;SDS011;56692;52.016;4.356;2023-03-31T07:54:23;17.60;;;2.38;;
69491;SDS011;56692;52.016;4.356;2023-03-31T07:56:49;12.97;;;2.33;;
69491;SDS011;56692;52.016;4.356;2023-03-31T07:59:15;13.77;;;2.10;;
69491;SDS011;56692;52.016;4.356;2023-03-31T08:01:41;21.55;;;2.92;;
69491;SDS011;56692;52.016;4.356;2023-03-31T08:04:07;19.40;;;3.23;;
69491;SDS011;56692;52.016;4.356;2023-03-31T08:06:34;12.65;;;2.90;;
69491;SDS011;56692;52.016;4.356;2023-03-31T08:09:00;12.68;;;1.70;;
69491;SDS011;56692;52.016;4.356;2023-03-31T08:11:26;22.42;;;2.70;;
69491;SDS011;56692;52.016;4.356;2023-03-31T08:13:52;19.57;;;2.10;;
69491;SDS011;56692;52.016;4.356;2023-03-31T08:16:18;18.77;;;2.33;;
69491;SDS011;56692;52.016;4.356;2023-03-31T08:18:44;16.17;;;2.47;;
69491;SDS011;56692;52.016;4.356;2023-03-31T08:21:10;18.77;;;1.70;;
69491;SDS011;56692;52.016;4.356;2023-03-31T08:23:36;15.30;;;1.52;;
69491;SDS011;56692;52.016;4.356;2023-03-31T08:26:11;15.65;;;1.35;;
69491;SDS011;56692;52.016;4.356;2023-03-31T08:28:39;13.27;;;1.98;;
69491;SDS011;56692;52.016;4.356;2023-03-31T08:31:08;14.47;;;1.77;;
69491;SDS011;56692;52.016;4.356;2023-03-31T08:33:34;11.45;;;1.40;;
69491;SDS011;56692;52.016;4.356;2023-03-31T08:36:04;16.88;;;1.63;;
69491;SDS011;56692;52.016;4.356;2023-03-31T08:38:33;11.80;;;2.17;;
69491;SDS011;56692;52.016;4.356;2023-03-31T08:41:01;9.67;;;1.30;;
69491;SDS011;56692;52.016;4.356;2023-03-31T08:43:38;10.73;;;1.92;;
69491;SDS011;56692;52.016;4.356;2023-03-31T08:46:10;8.18;;;1.33;;
69491;SDS011;56692;52.016;4.356;2023-03-31T08:48:40;11.02;;;1.40;;
69491;SDS011;56692;52.016;4.356;2023-03-31T08:51:21;10.52;;;1.40;;
69491;SDS011;56692;52.016;4.356;2023-03-31T08:54:15;15.03;;;1.80;;
69491;SDS011;56692;52.016;4.356;2023-03-31T08:56:50;13.00;;;1.13;;
69491;SDS011;56692;52.016;4.356;2023-03-31T08:59:30;13.23;;;1.92;;
69491;SDS011;56692;52.016;4.356;2023-03-31T09:10:15;12.07;;;1.25;;
69491;SDS011;56692;52.016;4.356;2023-03-31T09:12:57;9.80;;;1.55;;
69491;SDS011;56692;52.016;4.356;2023-03-31T09:15:47;18.13;;;2.13;;
69491;SDS011;56692;52.016;4.356;2023-03-31T09:18:37;13.73;;;2.47;;
69491;SDS011;56692;52.016;4.356;2023-03-31T09:24:11;12.15;;;2.47;;
69491;SDS011;56692;52.016;4.356;2023-03-31T09:26:57;10.20;;;1.35;;
69491;SDS011;56692;52.016;4.356;2023-03-31T09:29:46;13.70;;;1.90;;
69491;SDS011;56692;52.016;4.356;2023-03-31T09:32:25;12.50;;;1.63;;
69491;SDS011;56692;52.016;4.356;2023-03-31T09:35:01;13.77;;;1.50;;
69491;SDS011;56692;52.016;4.356;2023-03-31T09:37:42;15.63;;;2.20;;
69491;SDS011;56692;52.016;4.356;2023-03-31T09:40:12;14.32;;;2.45;;
69491;SDS011;56692;52.016;4.356;2023-03-31T09:42:44;12.45;;;2.13;;
69491;SDS011;56692;52.016;4.356;2023-03-31T09:45:13;11.07;;;1.77;;
69491;SDS011;56692;52.016;4.356;2023-03-31T09:47:41;10.60;;;1.50;;
69491;SDS011;56692;52.016;4.356;2023-03-31T09:50:10;13.60;;;1.55;;
69491;SDS011;56692;52.016;4.356;2023-03-31T09:52:38;12.35;;;1.40;;
69491;SDS011;56692;52.016;4.356;2023-03-31T09:55:20;15.15;;;1.35;;
69491;SDS011;56692;52.016;4.356;2023-03-31T09:57:49;15.07;;;2.28;;
69491;SDS011;56692;52.016;4.356;2023-03-31T10:00:17;11.13;;;2.17;;
69491;SDS011;56692;52.016;4.356;2023-03-31T10:02:52;21.27;;;1.88;;
69491;SDS011;56692;52.016;4.356;2023-03-31T10:05:29;13.38;;;1.80;;
69491;SDS011;56692;52.016;4.356;2023-03-31T10:13:16;13.97;;;1.37;;
69491;SDS011;56692;52.016;4.356;2023-03-31T10:15:45;13.95;;;1.30;;
69491;SDS011;56692;52.016;4.356;2023-03-31T10:18:15;14.40;;;2.30;;
69491;SDS011;56692;52.016;4.356;2023-03-31T10:20:43;12.97;;;1.43;;
69491;SDS011;56692;52.016;4.356;2023-03-31T10:23:27;10.10;;;1.63;;
69491;SDS011;56692;52.016;4.356;2023-03-31T10:25:56;9.75;;;1.95;;
69491;SDS011;56692;52.016;4.356;2023-03-31T10:28:23;13.60;;;2.30;;
69491;SDS011;56692;52.016;4.356;2023-03-31T10:30:53;13.07;;;1.80;;
69491;SDS011;56692;52.016;4.356;2023-03-31T10:33:23;8.73;;;1.80;;
69491;SDS011;56692;52.016;4.356;2023-03-31T10:35:56;7.68;;;1.33;;
69491;SDS011;56692;52.016;4.356;2023-03-31T10:38:25;12.50;;;1.48;;
69491;SDS011;56692;52.016;4.356;2023-03-31T10:40:55;13.30;;;1.50;;
69491;SDS011;56692;52.016;4.356;2023-03-31T10:43:27;15.30;;;1.83;;
69491;SDS011;56692;52.016;4.356;2023-03-31T10:45:56;9.10;;;1.23;;
69491;SDS011;56692;52.016;4.356;2023-03-31T10:48:29;7.20;;;1.30;;
69491;SDS011;56692;52.016;4.356;2023-03-31T10:51:03;12.25;;;1.60;;
69491;SDS011;56692;52.016;4.356;2023-03-31T10:53:29;10.40;;;1.17;;
69491;SDS011;56692;52.016;4.356;2023-03-31T10:56:11;13.73;;;2.05;;
69491;SDS011;56692;52.016;4.356;2023-03-31T11:10:02;8.77;;;1.40;;
69491;SDS011;56692;52.016;4.356;2023-03-31T11:18:15;8.80;;;1.45;;
69491;SDS011;56692;52.016;4.356;2023-03-31T11:23:41;10.20;;;1.58;;
69491;SDS011;56692;52.016;4.356;2023-03-31T11:26:27;5.83;;;1.00;;
69491;SDS011;56692;52.016;4.356;2023-03-31T11:31:47;10.90;;;1.60;;
69491;SDS011;56692;52.016;4.356;2023-03-31T11:42:32;11.50;;;1.40;;
69491;SDS011;56692;52.016;4.356;2023-03-31T11:45:04;12.65;;;1.13;;
69491;SDS011;56692;52.016;4.356;2023-03-31T11:47:43;13.15;;;1.90;;
69491;SDS011;56692;52.016;4.356;2023-03-31T11:50:20;5.53;;;0.80;;
69491;SDS011;56692;52.016;4.356;2023-03-31T11:53:36;9.50;;;1.00;;
69491;SDS011;56692;52.016;4.356;2023-03-31T11:55:40;5.45;;;0.73;;
69491;SDS011;56692;52.016;4.356;2023-03-31T11:58:18;11.38;;;1.30;;
69491;SDS011;56692;52.016;4.356;2023-03-31T12:00:56;6.68;;;1.00;;
69491;SDS011;56692;52.016;4.356;2023-03-31T12:06:02;8.07;;;1.60;;
69491;SDS011;56692;52.016;4.356;2023-03-31T12:08:42;6.63;;;1.00;;
69491;SDS011;56692;52.016;4.356;2023-03-31T12:11:14;10.02;;;1.42;;
69491;SDS011;56692;52.016;4.356;2023-03-31T12:14:13;7.13;;;1.58;;
69491;SDS011;56692;52.016;4.356;2023-03-31T12:16:51;6.82;;;1.92;;
69491;SDS011;56692;52.016;4.356;2023-03-31T12:22:46;8.98;;;1.02;;
69491;SDS011;56692;52.016;4.356;2023-03-31T12:25:02;7.22;;;1.23;;
69491;SDS011;56692;52.016;4.356;2023-03-31T12:29:57;9.52;;;1.40;;
69491;SDS011;56692;52.016;4.356;2023-03-31T12:32:33;9.13;;;1.23;;
69491;SDS011;56692;52.016;4.356;2023-03-31T12:35:06;6.63;;;1.15;;
69491;SDS011;56692;52.016;4.356;2023-03-31T12:37:59;6.68;;;1.27;;
69491;SDS011;56692;52.016;4.356;2023-03-31T12:40:48;7.28;;;1.05;;
69491;SDS011;56692;52.016;4.356;2023-03-31T12:51:50;7.38;;;1.48;;
69491;SDS011;56692;52.016;4.356;2023-03-31T12:57:36;6.53;;;1.20;;
69491;SDS011;56692;52.016;4.356;2023-03-31T13:00:14;6.87;;;1.17;;
69491;SDS011;56692;52.016;4.356;2023-03-31T13:02:47;8.02;;;1.33;;
69491;SDS011;56692;52.016;4.356;2023-03-31T13:08:08;6.68;;;0.80;;
69491;SDS011;56692;52.016;4.356;2023-03-31T13:13:35;9.73;;;1.10;;
69491;SDS011;56692;52.016;4.356;2023-03-31T13:16:04;4.88;;;0.88;;
69491;SDS011;56692;52.016;4.356;2023-03-31T13:18:31;8.23;;;1.73;;
69491;SDS011;56692;52.016;4.356;2023-03-31T13:20:58;9.32;;;1.50;;
69491;SDS011;56692;52.016;4.356;2023-03-31T13:23:26;8.10;;;1.10;;
69491;SDS011;56692;52.016;4.356;2023-03-31T13:25:57;7.25;;;1.13;;
69491;SDS011;56692;52.016;4.356;2023-03-31T13:28:25;6.28;;;1.40;;
69491;SDS011;56692;52.016;4.356;2023-03-31T13:31:17;5.97;;;1.13;;
69491;SDS011;56692;52.016;4.356;2023-03-31T13:33:53;7.77;;;1.30;;
69491;SDS011;56692;52.016;4.356;2023-03-31T13:52:52;7.07;;;1.13;;
69491;SDS011;56692;52.016;4.356;2023-03-31T14:11:29;7.07;;;0.90;;
69491;SDS011;56692;52.016;4.356;2023-03-31T14:13:59;4.80;;;0.70;;
69491;SDS011;56692;52.016;4.356;2023-03-31T14:16:35;8.55;;;1.25;;
69491;SDS011;56692;52.016;4.356;2023-03-31T14:22:19;5.57;;;1.02;;
69491;SDS011;56692;52.016;4.356;2023-03-31T14:36:44;9.70;;;1.20;;
69491;SDS011;56692;52.016;4.356;2023-03-31T14:39:25;4.53;;;0.83;;
69491;SDS011;56692;52.016;4.356;2023-03-31T14:41:54;6.32;;;0.75;;
69491;SDS011;56692;52.016;4.356;2023-03-31T14:44:24;7.13;;;1.38;;
69491;SDS011;56692;52.016;4.356;2023-03-31T14:46:50;9.65;;;1.15;;
69491;SDS011;56692;52.016;4.356;2023-03-31T14:49:27;7.95;;;1.98;;
69491;SDS011;56692;52.016;4.356;2023-03-31T14:51:59;7.37;;;0.90;;
69491;SDS011;56692;52.016;4.356;2023-03-31T14:54:33;5.13;;;0.80;;
69491;SDS011;56692;52.016;4.356;2023-03-31T14:57:01;4.80;;;1.30;;
69491;SDS011;56692;52.016;4.356;2023-03-31T14:59:29;5.65;;;0.77;;
69491;SDS011;56692;52.016;4.356;2023-03-31T15:01:58;6.60;;;0.98;;
69491;SDS011;56692;52.016;4.356;2023-03-31T15:04:27;6.83;;;1.00;;
69491;SDS011;56692;52.016;4.356;2023-03-31T15:06:55;5.80;;;0.90;;
69491;SDS011;56692;52.016;4.356;2023-03-31T15:09:26;7.72;;;1.23;;
69491;SDS011;56692;52.016;4.356;2023-03-31T15:12:05;4.45;;;1.10;;
69491;SDS011;56692;52.016;4.356;2023-03-31T15:14:39;4.55;;;1.08;;
69491;SDS011;56692;52.016;4.356;2023-03-31T15:17:16;5.77;;;1.00;;
69491;SDS011;56692;52.016;4.356;2023-03-31T15:19:42;5.72;;;0.80;;
69491;SDS011;56692;52.016;4.356;2023-03-31T15:24:42;5.27;;;0.70;;
69491;SDS011;56692;52.016;4.356;2023-03-31T15:27:24;5.65;;;0.50;;
69491;SDS011;56692;52.016;4.356;2023-03-31T15:29:53;5.72;;;0.80;;
69491;SDS011;56692;52.016;4.356;2023-03-31T15:32:28;4.97;;;1.40;;
69491;SDS011;56692;52.016;4.356;2023-03-31T15:34:55;4.67;;;0.53;;
69491;SDS011;56692;52.016;4.356;2023-03-31T15:37:26;6.15;;;1.15;;
69491;SDS011;56692;52.016;4.356;2023-03-31T15:39:57;3.88;;;0.68;;
69491;SDS011;56692;52.016;4.356;2023-03-31T15:42:24;4.45;;;0.93;;
69491;SDS011;56692;52.016;4.356;2023-03-31T15:44:56;5.85;;;1.05;;
69491;SDS011;56692;52.016;4.356;2023-03-31T15:47:48;6.07;;;0.70;;
69491;SDS011;56692;52.016;4.356;2023-03-31T15:50:15;6.18;;;0.95;;
69491;SDS011;56692;52.016;4.356;2023-03-31T15:52:46;3.60;;;0.95;;
69491;SDS011;56692;52.016;4.356;2023-03-31T15:57:50;5.60;;;1.13;;
69491;SDS011;56692;52.016;4.356;2023-03-31T16:06:04;3.60;;;0.80;;
69491;SDS011;56692;52.016;4.356;2023-03-31T16:11:51;4.32;;;0.68;;
69491;SDS011;56692;52.016;4.356;2023-03-31T16:14:26;4.63;;;0.60;;
69491;SDS011;56692;52.016;4.356;2023-03-31T16:17:05;4.80;;;0.55;;
69491;SDS011;56692;52.016;4.356;2023-03-31T16:19:44;4.38;;;0.88;;
69491;SDS011;56692;52.016;4.356;2023-03-31T16:22:15;4.05;;;1.25;;
69491;SDS011;56692;52.016;4.356;2023-03-31T16:24:46;5.63;;;1.00;;
69491;SDS011;56692;52.016;4.356;2023-03-31T16:27:13;4.57;;;0.60;;
69491;SDS011;56692;52.016;4.356;2023-03-31T16:29:39;6.90;;;0.93;;
69491;SDS011;56692;52.016;4.356;2023-03-31T16:32:06;3.35;;;0.63;;
69491;SDS011;56692;52.016;4.356;2023-03-31T16:34:56;4.32;;;0.85;;
69491;SDS011;56692;52.016;4.356;2023-03-31T16:37:23;3.83;;;0.80;;
69491;SDS011;56692;52.016;4.356;2023-03-31T16:39:49;3.88;;;0.98;;
69491;SDS011;56692;52.016;4.356;2023-03-31T16:42:15;3.95;;;0.85;;
69491;SDS011;56692;52.016;4.356;2023-03-31T16:44:41;4.82;;;0.68;;
69491;SDS011;56692;52.016;4.356;2023-03-31T16:47:08;4.32;;;1.05;;
69491;SDS011;56692;52.016;4.356;2023-03-31T16:49:34;4.43;;;0.70;;
69491;SDS011;56692;52.016;4.356;2023-03-31T16:52:00;4.32;;;0.88;;
69491;SDS011;56692;52.016;4.356;2023-03-31T16:54:26;4.47;;;0.93;;
69491;SDS011;56692;52.016;4.356;2023-03-31T16:56:51;4.93;;;1.33;;
69491;SDS011;56692;52.016;4.356;2023-03-31T16:59:17;2.83;;;0.88;;
69491;SDS011;56692;52.016;4.356;2023-03-31T17:01:43;3.27;;;0.60;;
69491;SDS011;56692;52.016;4.356;2023-03-31T17:04:09;3.08;;;0.82;;
69491;SDS011;56692;52.016;4.356;2023-03-31T17:06:35;3.63;;;0.65;;
69491;SDS011;56692;52.016;4.356;2023-03-31T17:09:01;2.97;;;0.70;;
69491;SDS011;56692;52.016;4.356;2023-03-31T17:11:27;4.18;;;0.73;;
69491;SDS011;56692;52.016;4.356;2023-03-31T17:13:54;4.25;;;1.00;;
69491;SDS011;56692;52.016;4.356;2023-03-31T17:16:24;3.53;;;0.80;;
69491;SDS011;56692;52.016;4.356;2023-03-31T17:18:50;4.27;;;1.00;;
69491;SDS011;56692;52.016;4.356;2023-03-31T17:21:17;7.07;;;1.02;;
69491;SDS011;56692;52.016;4.356;2023-03-31T17:23:43;2.75;;;0.80;;
69491;SDS011;56692;52.016;4.356;2023-03-31T17:26:10;4.28;;;0.68;;
69491;SDS011;56692;52.016;4.356;2023-03-31T17:28:39;2.65;;;0.65;;
69491;SDS011;56692;52.016;4.356;2023-03-31T17:31:15;4.90;;;0.60;;
69491;SDS011;56692;52.016;4.356;2023-03-31T17:33:43;4.13;;;0.90;;
69491;SDS011;56692;52.016;4.356;2023-03-31T17:36:09;5.03;;;0.90;;
69491;SDS011;56692;52.016;4.356;2023-03-31T17:38:35;4.93;;;0.77;;
69491;SDS011;56692;52.016;4.356;2023-03-31T17:41:07;3.03;;;0.73;;
69491;SDS011;56692;52.016;4.356;2023-03-31T17:43:35;4.40;;;0.90;;
69491;SDS011;56692;52.016;4.356;2023-03-31T17:46:02;3.03;;;0.85;;
69491;SDS011;56692;52.016;4.356;2023-03-31T17:48:30;3.72;;;0.70;;
69491;SDS011;56692;52.016;4.356;2023-03-31T17:51:02;3.22;;;0.68;;